sensor_id;sensor_type;location;lat;lon;timestamp;temperature;humidity
11067;DHT22;29763;50.904;5.530;2023-04-24T00:00:40;9.50;99.90
11067;DHT22;29763;50.904;5.530;2023-04-24T00:03:28;9.50;99.90
11067;DHT22;29763;50.904;5.530;2023-04-24T00:05:56;9.40;99.90
11067;DHT22;29763;50.904;5.530;2023-04-24T00:08:29;9.40;99.90
11067;DHT22;29763;50.904;5.530;2023-04-24T00:10:57;9.40;99.90
11067;DHT22;29763;50.904;5.530;2023-04-24T00:13:25;9.40;99.90
11067;DHT22;29763;50.904;5.530;2023-04-24T00:16:00;9.40;99.90
11067;DHT22;29763;50.904;5.530;2023-04-24T00:18:41;9.40;99.90
11067;DHT22;29763;50.904;5.530;2023-04-24T00:21:30;9.40;99.90
11067;DHT22;29763;50.904;5.530;2023-04-24T00:23:58;9.40;99.90
11067;DHT22;29763;50.904;5.530;2023-04-24T00:26:33;9.40;99.90
11067;DHT22;29763;50.904;5.530;2023-04-24T00:29:03;9.40;99.90
11067;DHT22;29763;50.904;5.530;2023-04-24T00:31:30;9.40;99.90
11067;DHT22;29763;50.904;5.530;2023-04-24T00:34:05;9.40;99.90
11067;DHT22;29763;50.904;5.530;2023-04-24T00:36:50;9.40;99.90
11067;DHT22;29763;50.904;5.530;2023-04-24T00:39:36;9.40;99.90
11067;DHT22;29763;50.904;5.530;2023-04-24T00:42:03;9.40;99.90
11067;DHT22;29763;50.904;5.530;2023-04-24T00:44:34;9.40;99.90
11067;DHT22;29763;50.904;5.530;2023-04-24T00:47:02;9.40;99.90
11067;DHT22;29763;50.904;5.530;2023-04-24T00:49:48;9.40;99.90
11067;DHT22;29763;50.904;5.530;2023-04-24T00:52:27;9.40;99.90
11067;DHT22;29763;50.904;5.530;2023-04-24T00:55:00;9.40;99.90
11067;DHT22;29763;50.904;5.530;2023-04-24T00:57:27;9.40;99.90
11067;DHT22;29763;50.904;5.530;2023-04-24T01:00:00;9.40;99.90
11067;DHT22;29763;50.904;5.530;2023-04-24T01:02:34;9.40;99.90
11067;DHT22;29763;50.904;5.530;2023-04-24T01:05:01;9.40;99.90
11067;DHT22;29763;50.904;5.530;2023-04-24T01:07:43;9.40;99.90
11067;DHT22;29763;50.904;5.530;2023-04-24T01:10:15;9.40;99.90
11067;DHT22;29763;50.904;5.530;2023-04-24T01:12:51;9.40;99.90
11067;DHT22;29763;50.904;5.530;2023-04-24T01:15:33;9.40;99.90
11067;DHT22;29763;50.904;5.530;2023-04-24T01:18:10;9.40;99.90
11067;DHT22;29763;50.904;5.530;2023-04-24T01:20:41;9.40;99.90
11067;DHT22;29763;50.904;5.530;2023-04-24T01:23:22;9.40;99.90
11067;DHT22;29763;50.904;5.530;2023-04-24T01:25:50;9.30;99.90
11067;DHT22;29763;50.904;5.530;2023-04-24T01:28:29;9.30;99.90
11067;DHT22;29763;50.904;5.530;2023-04-24T01:30:58;9.30;99.90
11067;DHT22;29763;50.904;5.530;2023-04-24T01:33:29;9.30;99.90
11067;DHT22;29763;50.904;5.530;2023-04-24T01:36:13;9.40;99.90
11067;DHT22;29763;50.904;5.530;2023-04-24T01:38:47;9.30;99.90
11067;DHT22;29763;50.904;5.530;2023-04-24T01:41:36;9.40;99.90
11067;DHT22;29763;50.904;5.530;2023-04-24T01:44:12;9.40;99.90
11067;DHT22;29763;50.904;5.530;2023-04-24T01:46:40;9.40;99.90
11067;DHT22;29763;50.904;5.530;2023-04-24T01:49:19;9.40;99.90
11067;DHT22;29763;50.904;5.530;2023-04-24T01:51:49;9.40;99.90
11067;DHT22;29763;50.904;5.530;2023-04-24T01:54:18;9.30;99.90
11067;DHT22;29763;50.904;5.530;2023-04-24T01:56:48;9.30;99.90
11067;DHT22;29763;50.904;5.530;2023-04-24T01:59:33;9.30;99.90
11067;DHT22;29763;50.904;5.530;2023-04-24T02:02:02;9.30;99.90
11067;DHT22;29763;50.904;5.530;2023-04-24T02:04:43;9.30;99.90
11067;DHT22;29763;50.904;5.530;2023-04-24T02:07:13;9.30;99.90
11067;DHT22;29763;50.904;5.530;2023-04-24T02:09:40;9.30;99.90
11067;DHT22;29763;50.904;5.530;2023-04-24T02:12:14;9.30;99.90
11067;DHT22;29763;50.904;5.530;2023-04-24T02:14:42;9.30;99.90
11067;DHT22;29763;50.904;5.530;2023-04-24T02:17:10;9.20;99.90
11067;DHT22;29763;50.904;5.530;2023-04-24T02:19:37;9.20;99.90
11067;DHT22;29763;50.904;5.530;2023-04-24T02:22:07;9.10;99.90
11067;DHT22;29763;50.904;5.530;2023-04-24T02:24:44;9.10;99.90
11067;DHT22;29763;50.904;5.530;2023-04-24T02:27:12;9.10;99.90
11067;DHT22;29763;50.904;5.530;2023-04-24T02:29:38;9.10;99.90
11067;DHT22;29763;50.904;5.530;2023-04-24T02:32:06;9.00;99.90
11067;DHT22;29763;50.904;5.530;2023-04-24T02:34:36;9.00;99.90
11067;DHT22;29763;50.904;5.530;2023-04-24T02:37:04;9.00;99.90
11067;DHT22;29763;50.904;5.530;2023-04-24T02:39:33;9.00;99.90
11067;DHT22;29763;50.904;5.530;2023-04-24T02:42:06;9.00;99.90
11067;DHT22;29763;50.904;5.530;2023-04-24T02:44:39;9.00;99.90
11067;DHT22;29763;50.904;5.530;2023-04-24T02:47:07;9.00;99.90
11067;DHT22;29763;50.904;5.530;2023-04-24T02:49:42;8.90;99.90
11067;DHT22;29763;50.904;5.530;2023-04-24T02:52:11;8.90;99.90
11067;DHT22;29763;50.904;5.530;2023-04-24T02:54:42;8.90;99.90
11067;DHT22;29763;50.904;5.530;2023-04-24T02:57:22;8.90;99.90
11067;DHT22;29763;50.904;5.530;2023-04-24T02:59:57;8.90;99.90
11067;DHT22;29763;50.904;5.530;2023-04-24T03:02:27;8.80;99.90
11067;DHT22;29763;50.904;5.530;2023-04-24T03:05:03;8.80;99.90
11067;DHT22;29763;50.904;5.530;2023-04-24T03:07:33;8.80;99.90
11067;DHT22;29763;50.904;5.530;2023-04-24T03:10:02;8.70;99.90
11067;DHT22;29763;50.904;5.530;2023-04-24T03:12:43;8.70;99.90
11067;DHT22;29763;50.904;5.530;2023-04-24T03:15:15;8.70;99.90
11067;DHT22;29763;50.904;5.530;2023-04-24T03:17:49;8.70;99.90
11067;DHT22;29763;50.904;5.530;2023-04-24T03:20:33;8.70;99.90
11067;DHT22;29763;50.904;5.530;2023-04-24T03:23:02;8.70;99.90
11067;DHT22;29763;50.904;5.530;2023-04-24T03:25:31;8.70;99.90
11067;DHT22;29763;50.904;5.530;2023-04-24T03:28:02;8.60;99.90
11067;DHT22;29763;50.904;5.530;2023-04-24T03:30:29;8.60;99.90
11067;DHT22;29763;50.904;5.530;2023-04-24T03:33:01;8.60;99.90
11067;DHT22;29763;50.904;5.530;2023-04-24T03:35:28;8.50;99.90
11067;DHT22;29763;50.904;5.530;2023-04-24T03:38:08;8.50;99.90
11067;DHT22;29763;50.904;5.530;2023-04-24T03:40:48;8.60;99.90
11067;DHT22;29763;50.904;5.530;2023-04-24T03:43:17;8.50;99.90
11067;DHT22;29763;50.904;5.530;2023-04-24T03:45:48;8.50;99.90
11067;DHT22;29763;50.904;5.530;2023-04-24T03:48:28;8.60;99.90
11067;DHT22;29763;50.904;5.530;2023-04-24T03:51:12;8.50;99.90
11067;DHT22;29763;50.904;5.530;2023-04-24T03:53:40;8.50;99.90
11067;DHT22;29763;50.904;5.530;2023-04-24T03:56:15;8.50;99.90
11067;DHT22;29763;50.904;5.530;2023-04-24T03:58:44;8.50;99.90
11067;DHT22;29763;50.904;5.530;2023-04-24T04:01:25;8.60;99.90
11067;DHT22;29763;50.904;5.530;2023-04-24T04:03:57;8.50;99.90
11067;DHT22;29763;50.904;5.530;2023-04-24T04:06:29;8.50;99.90
11067;DHT22;29763;50.904;5.530;2023-04-24T04:09:12;8.60;99.90
11067;DHT22;29763;50.904;5.530;2023-04-24T04:11:45;8.50;99.90
11067;DHT22;29763;50.904;5.530;2023-04-24T04:14:13;8.50;99.90
11067;DHT22;29763;50.904;5.530;2023-04-24T04:16:39;8.50;99.90
11067;DHT22;29763;50.904;5.530;2023-04-24T04:19:14;8.50;99.90
11067;DHT22;29763;50.904;5.530;2023-04-24T04:22:30;8.40;99.90
11067;DHT22;29763;50.904;5.530;2023-04-24T04:24:57;8.50;99.90
11067;DHT22;29763;50.904;5.530;2023-04-24T04:27:56;8.50;99.90
11067;DHT22;29763;50.904;5.530;2023-04-24T04:30:29;8.40;99.90
11067;DHT22;29763;50.904;5.530;2023-04-24T04:33:01;8.40;99.90
11067;DHT22;29763;50.904;5.530;2023-04-24T04:35:42;8.40;99.90
11067;DHT22;29763;50.904;5.530;2023-04-24T04:38:15;8.40;99.90
11067;DHT22;29763;50.904;5.530;2023-04-24T04:40:53;8.40;99.90
11067;DHT22;29763;50.904;5.530;2023-04-24T04:43:31;8.40;99.90
11067;DHT22;29763;50.904;5.530;2023-04-24T04:46:13;8.40;99.90
11067;DHT22;29763;50.904;5.530;2023-04-24T04:49:08;8.40;99.90
11067;DHT22;29763;50.904;5.530;2023-04-24T04:51:46;8.30;99.90
11067;DHT22;29763;50.904;5.530;2023-04-24T04:54:12;8.30;99.90
11067;DHT22;29763;50.904;5.530;2023-04-24T04:56:40;8.20;99.90
11067;DHT22;29763;50.904;5.530;2023-04-24T04:59:24;8.20;99.90
11067;DHT22;29763;50.904;5.530;2023-04-24T05:02:02;8.20;99.90
11067;DHT22;29763;50.904;5.530;2023-04-24T05:04:59;8.20;99.90
11067;DHT22;29763;50.904;5.530;2023-04-24T05:07:31;8.20;99.90
11067;DHT22;29763;50.904;5.530;2023-04-24T05:17:32;8.10;99.90
11067;DHT22;29763;50.904;5.530;2023-04-24T05:20:23;8.20;99.90
11067;DHT22;29763;50.904;5.530;2023-04-24T05:26:00;8.20;99.90
11067;DHT22;29763;50.904;5.530;2023-04-24T05:45:55;8.20;99.90
11067;DHT22;29763;50.904;5.530;2023-04-24T05:48:56;8.20;99.90
11067;DHT22;29763;50.904;5.530;2023-04-24T05:51:26;8.20;99.90
11067;DHT22;29763;50.904;5.530;2023-04-24T05:54:04;8.20;99.90
11067;DHT22;29763;50.904;5.530;2023-04-24T05:56:40;8.20;99.90
11067;DHT22;29763;50.904;5.530;2023-04-24T05:59:28;8.20;99.90
11067;DHT22;29763;50.904;5.530;2023-04-24T06:02:07;8.20;99.90
11067;DHT22;29763;50.904;5.530;2023-04-24T06:05:06;8.20;99.90
11067;DHT22;29763;50.904;5.530;2023-04-24T06:07:40;8.20;99.90
11067;DHT22;29763;50.904;5.530;2023-04-24T06:10:12;8.10;99.90
11067;DHT22;29763;50.904;5.530;2023-04-24T06:12:51;8.20;99.90
11067;DHT22;29763;50.904;5.530;2023-04-24T06:19:06;8.10;99.90
11067;DHT22;29763;50.904;5.530;2023-04-24T06:21:57;8.10;99.90
11067;DHT22;29763;50.904;5.530;2023-04-24T06:24:35;8.10;99.90
11067;DHT22;29763;50.904;5.530;2023-04-24T06:33:40;8.00;99.90
11067;DHT22;29763;50.904;5.530;2023-04-24T06:36:20;8.00;99.90
11067;DHT22;29763;50.904;5.530;2023-04-24T06:39:11;8.10;99.90
11067;DHT22;29763;50.904;5.530;2023-04-24T06:41:58;8.00;99.90
11067;DHT22;29763;50.904;5.530;2023-04-24T06:45:12;8.00;99.90
11067;DHT22;29763;50.904;5.530;2023-04-24T06:47:52;8.00;99.90
11067;DHT22;29763;50.904;5.530;2023-04-24T06:50:31;8.00;99.90
11067;DHT22;29763;50.904;5.530;2023-04-24T06:56:47;8.00;99.90
11067;DHT22;29763;50.904;5.530;2023-04-24T06:59:34;8.00;99.90
11067;DHT22;29763;50.904;5.530;2023-04-24T07:08:19;8.00;99.90
11067;DHT22;29763;50.904;5.530;2023-04-24T07:11:04;8.00;99.90
11067;DHT22;29763;50.904;5.530;2023-04-24T07:13:35;8.10;99.90
11067;DHT22;29763;50.904;5.530;2023-04-24T07:16:12;8.00;99.90
11067;DHT22;29763;50.904;5.530;2023-04-24T07:18:48;8.10;99.90
11067;DHT22;29763;50.904;5.530;2023-04-24T07:21:16;8.10;99.90
11067;DHT22;29763;50.904;5.530;2023-04-24T07:23:49;8.10;99.90
11067;DHT22;29763;50.904;5.530;2023-04-24T07:26:15;8.10;99.90
11067;DHT22;29763;50.904;5.530;2023-04-24T07:28:41;8.20;99.90
11067;DHT22;29763;50.904;5.530;2023-04-24T07:31:08;8.20;99.90
11067;DHT22;29763;50.904;5.530;2023-04-24T07:33:37;8.10;99.90
11067;DHT22;29763;50.904;5.530;2023-04-24T07:36:03;8.20;99.90
11067;DHT22;29763;50.904;5.530;2023-04-24T07:38:31;8.20;99.90
11067;DHT22;29763;50.904;5.530;2023-04-24T07:40:58;8.30;99.90
11067;DHT22;29763;50.904;5.530;2023-04-24T07:43:25;8.30;99.90
11067;DHT22;29763;50.904;5.530;2023-04-24T07:45:55;8.30;99.90
11067;DHT22;29763;50.904;5.530;2023-04-24T07:48:21;8.30;99.90
11067;DHT22;29763;50.904;5.530;2023-04-24T07:50:48;8.30;99.90
11067;DHT22;29763;50.904;5.530;2023-04-24T07:53:14;8.40;99.90
11067;DHT22;29763;50.904;5.530;2023-04-24T07:55:40;8.40;99.90
11067;DHT22;29763;50.904;5.530;2023-04-24T07:58:13;8.50;99.90
11067;DHT22;29763;50.904;5.530;2023-04-24T08:00:45;8.50;99.90
11067;DHT22;29763;50.904;5.530;2023-04-24T08:03:11;8.60;99.90
11067;DHT22;29763;50.904;5.530;2023-04-24T08:05:38;8.60;99.90
11067;DHT22;29763;50.904;5.530;2023-04-24T08:08:04;8.60;99.90
11067;DHT22;29763;50.904;5.530;2023-04-24T08:10:32;8.60;99.90
11067;DHT22;29763;50.904;5.530;2023-04-24T08:12:58;8.60;99.90
11067;DHT22;29763;50.904;5.530;2023-04-24T08:15:31;8.60;99.90
11067;DHT22;29763;50.904;5.530;2023-04-24T08:17:59;8.60;99.90
11067;DHT22;29763;50.904;5.530;2023-04-24T08:20:29;8.60;99.90
11067;DHT22;29763;50.904;5.530;2023-04-24T08:22:55;8.60;99.90
11067;DHT22;29763;50.904;5.530;2023-04-24T08:25:22;8.60;99.90
11067;DHT22;29763;50.904;5.530;2023-04-24T08:27:49;8.60;99.90
11067;DHT22;29763;50.904;5.530;2023-04-24T08:30:15;8.60;99.90
11067;DHT22;29763;50.904;5.530;2023-04-24T08:32:41;8.60;99.90
11067;DHT22;29763;50.904;5.530;2023-04-24T08:35:09;8.60;99.90
11067;DHT22;29763;50.904;5.530;2023-04-24T08:37:36;8.60;99.90
11067;DHT22;29763;50.904;5.530;2023-04-24T08:40:10;8.60;99.90
11067;DHT22;29763;50.904;5.530;2023-04-24T08:42:39;8.70;99.90
11067;DHT22;29763;50.904;5.530;2023-04-24T08:45:09;8.70;99.90
11067;DHT22;29763;50.904;5.530;2023-04-24T08:47:36;8.80;99.90
11067;DHT22;29763;50.904;5.530;2023-04-24T08:50:04;9.00;99.90
11067;DHT22;29763;50.904;5.530;2023-04-24T08:52:33;9.20;99.90
11067;DHT22;29763;50.904;5.530;2023-04-24T08:55:09;9.40;99.90
11067;DHT22;29763;50.904;5.530;2023-04-24T08:57:36;9.50;99.90
11067;DHT22;29763;50.904;5.530;2023-04-24T09:00:05;9.50;99.90
11067;DHT22;29763;50.904;5.530;2023-04-24T09:02:33;9.40;99.90
11067;DHT22;29763;50.904;5.530;2023-04-24T09:05:01;9.50;99.90
11067;DHT22;29763;50.904;5.530;2023-04-24T09:07:30;9.60;99.90
11067;DHT22;29763;50.904;5.530;2023-04-24T09:09:58;9.80;99.90
11067;DHT22;29763;50.904;5.530;2023-04-24T09:12:24;10.00;99.90
11067;DHT22;29763;50.904;5.530;2023-04-24T09:14:52;10.20;99.90
11067;DHT22;29763;50.904;5.530;2023-04-24T09:17:27;10.20;99.90
11067;DHT22;29763;50.904;5.530;2023-04-24T09:19:54;10.10;99.90
11067;DHT22;29763;50.904;5.530;2023-04-24T09:22:23;10.00;99.90
11067;DHT22;29763;50.904;5.530;2023-04-24T09:25:04;9.70;99.90
11067;DHT22;29763;50.904;5.530;2023-04-24T09:27:31;9.50;99.90
11067;DHT22;29763;50.904;5.530;2023-04-24T09:30:01;9.20;99.90
11067;DHT22;29763;50.904;5.530;2023-04-24T09:32:28;9.10;99.90
11067;DHT22;29763;50.904;5.530;2023-04-24T09:35:14;9.10;99.90
11067;DHT22;29763;50.904;5.530;2023-04-24T09:37:42;9.20;99.90
11067;DHT22;29763;50.904;5.530;2023-04-24T09:40:12;9.30;99.90
11067;DHT22;29763;50.904;5.530;2023-04-24T09:42:50;9.40;99.90
11067;DHT22;29763;50.904;5.530;2023-04-24T09:45:17;9.70;99.90
11067;DHT22;29763;50.904;5.530;2023-04-24T09:47:43;10.20;99.90
11067;DHT22;29763;50.904;5.530;2023-04-24T09:50:29;10.50;99.90
11067;DHT22;29763;50.904;5.530;2023-04-24T09:53:01;10.80;99.90
11067;DHT22;29763;50.904;5.530;2023-04-24T09:55:27;11.10;99.90
11067;DHT22;29763;50.904;5.530;2023-04-24T09:57:58;11.60;99.90
11067;DHT22;29763;50.904;5.530;2023-04-24T10:00:30;12.00;99.90
11067;DHT22;29763;50.904;5.530;2023-04-24T10:02:59;12.50;99.90
11067;DHT22;29763;50.904;5.530;2023-04-24T10:05:28;12.60;99.90
11067;DHT22;29763;50.904;5.530;2023-04-24T10:08:02;12.60;99.90
11067;DHT22;29763;50.904;5.530;2023-04-24T10:10:39;12.80;99.90
11067;DHT22;29763;50.904;5.530;2023-04-24T10:13:07;13.00;99.90
11067;DHT22;29763;50.904;5.530;2023-04-24T10:15:35;13.20;99.90
11067;DHT22;29763;50.904;5.530;2023-04-24T10:18:02;13.30;99.90
11067;DHT22;29763;50.904;5.530;2023-04-24T10:20:30;12.90;99.90
11067;DHT22;29763;50.904;5.530;2023-04-24T10:22:58;12.80;99.90
11067;DHT22;29763;50.904;5.530;2023-04-24T10:25:27;12.70;99.90
11067;DHT22;29763;50.904;5.530;2023-04-24T10:27:54;12.80;99.90
11067;DHT22;29763;50.904;5.530;2023-04-24T10:30:23;12.70;99.90
11067;DHT22;29763;50.904;5.530;2023-04-24T10:32:50;12.50;99.90
11067;DHT22;29763;50.904;5.530;2023-04-24T10:35:22;12.70;99.90
11067;DHT22;29763;50.904;5.530;2023-04-24T10:40:38;13.30;99.90
11067;DHT22;29763;50.904;5.530;2023-04-24T10:43:08;12.70;99.90
11067;DHT22;29763;50.904;5.530;2023-04-24T10:45:37;12.20;99.90
11067;DHT22;29763;50.904;5.530;2023-04-24T10:48:05;12.10;99.90
11067;DHT22;29763;50.904;5.530;2023-04-24T10:53:37;12.90;99.90
11067;DHT22;29763;50.904;5.530;2023-04-24T10:56:08;13.90;99.90
11067;DHT22;29763;50.904;5.530;2023-04-24T10:58:44;14.10;99.90
11067;DHT22;29763;50.904;5.530;2023-04-24T11:01:30;13.80;99.90
11067;DHT22;29763;50.904;5.530;2023-04-24T11:04:00;13.50;99.90
11067;DHT22;29763;50.904;5.530;2023-04-24T11:06:32;13.40;99.90
11067;DHT22;29763;50.904;5.530;2023-04-24T11:09:10;13.20;99.90
11067;DHT22;29763;50.904;5.530;2023-04-24T11:11:45;13.00;99.90
11067;DHT22;29763;50.904;5.530;2023-04-24T11:14:14;12.60;99.90
11067;DHT22;29763;50.904;5.530;2023-04-24T11:16:52;12.50;99.90
11067;DHT22;29763;50.904;5.530;2023-04-24T11:19:24;12.40;99.90
11067;DHT22;29763;50.904;5.530;2023-04-24T11:22:03;12.20;99.90
11067;DHT22;29763;50.904;5.530;2023-04-24T11:24:39;12.00;99.90
11067;DHT22;29763;50.904;5.530;2023-04-24T11:27:11;12.10;99.90
11067;DHT22;29763;50.904;5.530;2023-04-24T11:29:41;12.30;99.90
11067;DHT22;29763;50.904;5.530;2023-04-24T11:34:57;12.40;99.90
11067;DHT22;29763;50.904;5.530;2023-04-24T11:37:36;12.20;99.90
11067;DHT22;29763;50.904;5.530;2023-04-24T11:40:10;12.30;99.90
11067;DHT22;29763;50.904;5.530;2023-04-24T11:42:42;12.30;99.90
11067;DHT22;29763;50.904;5.530;2023-04-24T11:45:21;12.40;99.90
11067;DHT22;29763;50.904;5.530;2023-04-24T11:47:48;12.90;99.90
11067;DHT22;29763;50.904;5.530;2023-04-24T11:50:21;13.70;99.90
11067;DHT22;29763;50.904;5.530;2023-04-24T11:52:49;14.00;99.90
11067;DHT22;29763;50.904;5.530;2023-04-24T11:57:46;13.90;99.90
11067;DHT22;29763;50.904;5.530;2023-04-24T12:00:22;13.80;99.90
11067;DHT22;29763;50.904;5.530;2023-04-24T12:02:49;13.60;99.90
11067;DHT22;29763;50.904;5.530;2023-04-24T12:05:27;13.60;99.90
11067;DHT22;29763;50.904;5.530;2023-04-24T12:07:53;13.60;99.90
11067;DHT22;29763;50.904;5.530;2023-04-24T12:10:26;13.90;99.90
11067;DHT22;29763;50.904;5.530;2023-04-24T12:12:54;14.50;99.90
11067;DHT22;29763;50.904;5.530;2023-04-24T12:15:22;15.00;99.90
11067;DHT22;29763;50.904;5.530;2023-04-24T12:17:51;15.40;99.90
11067;DHT22;29763;50.904;5.530;2023-04-24T12:20:17;15.20;99.90
11067;DHT22;29763;50.904;5.530;2023-04-24T12:25:19;14.30;99.90
11067;DHT22;29763;50.904;5.530;2023-04-24T12:27:46;14.10;99.90
11067;DHT22;29763;50.904;5.530;2023-04-24T12:30:15;14.30;99.90
11067;DHT22;29763;50.904;5.530;2023-04-24T12:32:43;14.30;99.90
11067;DHT22;29763;50.904;5.530;2023-04-24T12:35:09;14.20;99.90
11067;DHT22;29763;50.904;5.530;2023-04-24T12:37:35;13.70;99.90
11067;DHT22;29763;50.904;5.530;2023-04-24T12:40:08;13.70;99.90
11067;DHT22;29763;50.904;5.530;2023-04-24T12:42:43;13.50;99.90
11067;DHT22;29763;50.904;5.530;2023-04-24T12:45:10;13.50;99.90
11067;DHT22;29763;50.904;5.530;2023-04-24T12:47:38;13.30;99.90
11067;DHT22;29763;50.904;5.530;2023-04-24T12:50:05;13.20;99.90
11067;DHT22;29763;50.904;5.530;2023-04-24T12:52:31;13.30;99.90
11067;DHT22;29763;50.904;5.530;2023-04-24T12:54:58;13.60;99.90
11067;DHT22;29763;50.904;5.530;2023-04-24T12:57:26;13.80;99.90
11067;DHT22;29763;50.904;5.530;2023-04-24T12:59:57;13.80;99.90
11067;DHT22;29763;50.904;5.530;2023-04-24T13:02:24;13.60;99.90
11067;DHT22;29763;50.904;5.530;2023-04-24T13:05:01;13.30;99.90
11067;DHT22;29763;50.904;5.530;2023-04-24T13:07:28;13.30;99.90
11067;DHT22;29763;50.904;5.530;2023-04-24T13:09:56;13.20;99.90
11067;DHT22;29763;50.904;5.530;2023-04-24T13:12:24;13.10;99.90
11067;DHT22;29763;50.904;5.530;2023-04-24T13:14:51;13.40;99.90
11067;DHT22;29763;50.904;5.530;2023-04-24T13:17:17;13.60;99.90
11067;DHT22;29763;50.904;5.530;2023-04-24T13:19:43;13.70;99.90
11067;DHT22;29763;50.904;5.530;2023-04-24T13:22:11;13.80;99.90
11067;DHT22;29763;50.904;5.530;2023-04-24T13:24:39;14.00;99.90
11067;DHT22;29763;50.904;5.530;2023-04-24T13:27:08;14.40;99.90
11067;DHT22;29763;50.904;5.530;2023-04-24T13:29:37;14.70;99.90
11067;DHT22;29763;50.904;5.530;2023-04-24T13:32:03;14.90;99.90
11067;DHT22;29763;50.904;5.530;2023-04-24T13:34:28;15.10;99.90
11067;DHT22;29763;50.904;5.530;2023-04-24T13:36:57;15.00;99.90
11067;DHT22;29763;50.904;5.530;2023-04-24T13:39:24;14.90;99.90
11067;DHT22;29763;50.904;5.530;2023-04-24T13:41:50;15.00;99.90
11067;DHT22;29763;50.904;5.530;2023-04-24T13:44:17;15.00;99.90
11067;DHT22;29763;50.904;5.530;2023-04-24T13:46:46;14.80;99.90
11067;DHT22;29763;50.904;5.530;2023-04-24T13:49:12;14.80;99.90
11067;DHT22;29763;50.904;5.530;2023-04-24T13:51:40;14.70;99.90
11067;DHT22;29763;50.904;5.530;2023-04-24T13:54:07;14.80;99.90
11067;DHT22;29763;50.904;5.530;2023-04-24T13:56:34;14.90;99.90
11067;DHT22;29763;50.904;5.530;2023-04-24T13:59:00;15.40;99.90
11067;DHT22;29763;50.904;5.530;2023-04-24T14:01:26;16.10;99.90
11067;DHT22;29763;50.904;5.530;2023-04-24T14:03:52;16.80;99.90
11067;DHT22;29763;50.904;5.530;2023-04-24T14:06:19;17.30;99.90
11067;DHT22;29763;50.904;5.530;2023-04-24T14:08:46;17.60;99.90
11067;DHT22;29763;50.904;5.530;2023-04-24T14:11:13;17.30;99.90
11067;DHT22;29763;50.904;5.530;2023-04-24T14:13:41;17.00;99.90
11067;DHT22;29763;50.904;5.530;2023-04-24T14:16:10;16.60;99.90
11067;DHT22;29763;50.904;5.530;2023-04-24T14:18:36;15.90;99.90
11067;DHT22;29763;50.904;5.530;2023-04-24T14:21:03;15.50;99.90
11067;DHT22;29763;50.904;5.530;2023-04-24T14:23:31;15.20;99.90
11067;DHT22;29763;50.904;5.530;2023-04-24T14:25:57;15.00;99.90
11067;DHT22;29763;50.904;5.530;2023-04-24T14:28:24;14.90;99.90
11067;DHT22;29763;50.904;5.530;2023-04-24T14:30:50;15.30;99.90
11067;DHT22;29763;50.904;5.530;2023-04-24T14:33:15;16.00;99.90
11067;DHT22;29763;50.904;5.530;2023-04-24T14:35:48;16.60;99.90
11067;DHT22;29763;50.904;5.530;2023-04-24T14:38:21;16.70;99.90
11067;DHT22;29763;50.904;5.530;2023-04-24T14:40:47;16.80;99.90
11067;DHT22;29763;50.904;5.530;2023-04-24T14:43:15;16.80;99.90
11067;DHT22;29763;50.904;5.530;2023-04-24T14:45:41;16.70;99.90
11067;DHT22;29763;50.904;5.530;2023-04-24T14:48:07;16.60;99.90
11067;DHT22;29763;50.904;5.530;2023-04-24T14:50:36;16.30;99.90
11067;DHT22;29763;50.904;5.530;2023-04-24T14:53:02;16.20;99.90
11067;DHT22;29763;50.904;5.530;2023-04-24T14:55:28;15.90;99.90
11067;DHT22;29763;50.904;5.530;2023-04-24T14:57:54;15.70;99.90
11067;DHT22;29763;50.904;5.530;2023-04-24T15:00:23;15.40;99.90
11067;DHT22;29763;50.904;5.530;2023-04-24T15:02:49;15.20;99.90
11067;DHT22;29763;50.904;5.530;2023-04-24T15:05:15;15.20;99.90
11067;DHT22;29763;50.904;5.530;2023-04-24T15:07:41;15.20;99.90
11067;DHT22;29763;50.904;5.530;2023-04-24T15:10:10;15.10;99.90
11067;DHT22;29763;50.904;5.530;2023-04-24T15:12:36;15.00;99.90
11067;DHT22;29763;50.904;5.530;2023-04-24T15:15:02;14.70;99.90
11067;DHT22;29763;50.904;5.530;2023-04-24T15:17:28;14.60;99.90
11067;DHT22;29763;50.904;5.530;2023-04-24T15:19:55;14.50;99.90
11067;DHT22;29763;50.904;5.530;2023-04-24T15:22:24;14.40;99.90
11067;DHT22;29763;50.904;5.530;2023-04-24T15:24:55;14.60;99.90
11067;DHT22;29763;50.904;5.530;2023-04-24T15:27:21;14.70;99.90
11067;DHT22;29763;50.904;5.530;2023-04-24T15:29:48;14.70;99.90
11067;DHT22;29763;50.904;5.530;2023-04-24T15:32:14;14.70;99.90
11067;DHT22;29763;50.904;5.530;2023-04-24T15:34:39;14.70;99.90
11067;DHT22;29763;50.904;5.530;2023-04-24T15:37:05;14.60;99.90
11067;DHT22;29763;50.904;5.530;2023-04-24T15:39:31;14.50;99.90
11067;DHT22;29763;50.904;5.530;2023-04-24T15:41:57;14.40;99.90
11067;DHT22;29763;50.904;5.530;2023-04-24T15:44:22;14.40;99.90
11067;DHT22;29763;50.904;5.530;2023-04-24T15:46:50;14.50;99.90
11067;DHT22;29763;50.904;5.530;2023-04-24T15:49:17;14.50;99.90
11067;DHT22;29763;50.904;5.530;2023-04-24T15:51:45;14.60;99.90
11067;DHT22;29763;50.904;5.530;2023-04-24T15:54:10;14.80;99.90
11067;DHT22;29763;50.904;5.530;2023-04-24T15:56:36;15.00;99.90
11067;DHT22;29763;50.904;5.530;2023-04-24T15:59:03;15.00;99.90
11067;DHT22;29763;50.904;5.530;2023-04-24T16:01:29;14.80;99.90
11067;DHT22;29763;50.904;5.530;2023-04-24T16:03:55;14.70;99.90
11067;DHT22;29763;50.904;5.530;2023-04-24T16:06:22;14.40;99.90
11067;DHT22;29763;50.904;5.530;2023-04-24T16:08:48;14.40;99.90
11067;DHT22;29763;50.904;5.530;2023-04-24T16:11:13;14.20;99.90
11067;DHT22;29763;50.904;5.530;2023-04-24T16:13:40;13.90;99.90
11067;DHT22;29763;50.904;5.530;2023-04-24T16:16:08;13.80;99.90
11067;DHT22;29763;50.904;5.530;2023-04-24T16:18:33;13.70;99.90
11067;DHT22;29763;50.904;5.530;2023-04-24T16:20:59;13.40;99.90
11067;DHT22;29763;50.904;5.530;2023-04-24T16:23:25;13.20;99.90
11067;DHT22;29763;50.904;5.530;2023-04-24T16:25:51;13.10;99.90
11067;DHT22;29763;50.904;5.530;2023-04-24T16:28:22;13.20;99.90
11067;DHT22;29763;50.904;5.530;2023-04-24T16:30:48;13.50;99.90
11067;DHT22;29763;50.904;5.530;2023-04-24T16:33:15;13.90;99.90
11067;DHT22;29763;50.904;5.530;2023-04-24T16:35:42;14.20;99.90
11067;DHT22;29763;50.904;5.530;2023-04-24T16:38:08;14.10;99.90
11067;DHT22;29763;50.904;5.530;2023-04-24T16:40:35;14.00;99.90
11067;DHT22;29763;50.904;5.530;2023-04-24T16:43:01;13.90;99.90
11067;DHT22;29763;50.904;5.530;2023-04-24T16:45:27;13.80;99.90
11067;DHT22;29763;50.904;5.530;2023-04-24T16:47:53;13.80;99.90
11067;DHT22;29763;50.904;5.530;2023-04-24T16:50:21;13.70;99.90
11067;DHT22;29763;50.904;5.530;2023-04-24T16:52:47;13.60;99.90
11067;DHT22;29763;50.904;5.530;2023-04-24T16:55:13;13.40;99.90
11067;DHT22;29763;50.904;5.530;2023-04-24T16:57:38;13.30;99.90
11067;DHT22;29763;50.904;5.530;2023-04-24T17:00:05;13.10;99.90
11067;DHT22;29763;50.904;5.530;2023-04-24T17:02:31;12.90;99.90
11067;DHT22;29763;50.904;5.530;2023-04-24T17:04:58;13.00;99.90
11067;DHT22;29763;50.904;5.530;2023-04-24T17:07:24;13.00;99.90